Time;durP1;ratioP1;P1;durP2;ratioP2;P2;SDS_P1;SDS_P2;PMS_P1;PMS_P2;Temp;Humidity;BMP_temperature;BMP_pressure;BME280_temperature;BME280_humidity;BME280_pressure;Samples;Min_cycle;Max_cycle;Signal;HPM_P1;HPM_P2
2023/03/12 00:00:35;;;;;;;10.70;2.17;;;;;-2.00;93481.00;;;;7398751;19;20148;-70
2023/03/12 00:03:05;;;;;;;5.03;1.63;;;;;-2.10;93479.00;;;;7395504;19;20636;-70
2023/03/12 00:05:50;;;;;;;5.87;1.60;;;;;-2.10;93477.00;;;;7395432;19;20654;-70
2023/03/12 00:08:17;;;;;;;3.83;1.63;;;;;-2.10;93477.00;;;;7398316;19;20145;-70
2023/03/12 00:10:51;;;;;;;4.80;1.80;;;;;-2.20;93479.00;;;;7396338;19;20509;-70
2023/03/12 00:13:25;;;;;;;3.37;1.90;;;;;-2.20;93478.00;;;;7395770;19;20133;-70
2023/03/12 00:16:07;;;;;;;2.93;1.70;;;;;-2.20;93478.00;;;;7397485;19;20612;-70
2023/03/12 00:18:35;;;;;;;3.77;1.80;;;;;-2.20;93475.00;;;;7398043;19;20136;-70
2023/03/12 00:21:09;;;;;;;5.53;1.77;;;;;-2.30;93478.00;;;;7398010;19;20125;-70
2023/03/12 00:23:45;;;;;;;5.63;2.00;;;;;-2.30;93484.00;;;;7395554;19;20152;-70
2023/03/12 00:26:20;;;;;;;5.33;2.00;;;;;-2.30;93479.00;;;;7397911;19;20133;-70
2023/03/12 00:28:49;;;;;;;4.63;1.80;;;;;-2.20;93474.00;;;;7397894;19;20199;-70
2023/03/12 00:31:27;;;;;;;6.57;2.47;;;;;-2.20;93468.00;;;;7390821;19;20223;-70
2023/03/12 00:33:56;;;;;;;9.00;2.10;;;;;-2.20;93468.00;;;;7388289;19;20595;-70
2023/03/12 00:36:25;;;;;;;3.47;1.73;;;;;-2.20;93461.00;;;;7395488;19;20502;-70
2023/03/12 00:39:00;;;;;;;3.53;1.70;;;;;-2.30;93470.00;;;;7397326;19;20468;-70
2023/03/12 00:41:29;;;;;;;7.77;2.30;;;;;-2.20;93468.00;;;;7396060;19;20129;-70
2023/03/12 00:44:02;;;;;;;10.83;2.17;;;;;-2.00;93475.00;;;;7397682;19;20131;-70
2023/03/12 00:46:30;;;;;;;8.27;2.00;;;;;-1.90;93472.00;;;;7395086;19;20157;-70
2023/03/12 00:48:57;;;;;;;3.40;1.67;;;;;-1.90;93466.00;;;;7396998;19;20583;-70
2023/03/12 00:51:31;;;;;;;8.03;2.20;;;;;-1.70;93469.00;;;;7396681;19;20143;-70
2023/03/12 00:53:59;;;;;;;3.50;2.00;;;;;-1.80;93465.00;;;;7396403;19;20220;-70
2023/03/12 00:56:34;;;;;;;4.70;1.90;;;;;-1.60;93462.00;;;;7397318;19;20136;-70
2023/03/12 00:59:08;;;;;;;3.30;1.97;;;;;-1.70;93452.00;;;;7395459;19;20603;-71
2023/03/12 01:01:42;;;;;;;2.97;1.67;;;;;-1.80;93461.00;;;;7395756;19;20637;-71
2023/03/12 01:04:18;;;;;;;3.67;1.80;;;;;-1.90;93463.00;;;;7402519;19;20160;-70
2023/03/12 01:07:00;;;;;;;8.57;1.70;;;;;-1.90;93465.00;;;;7404760;19;20121;-70
2023/03/12 01:09:33;;;;;;;6.60;2.13;;;;;-1.90;93468.00;;;;7402433;19;20125;-70
2023/03/12 01:12:07;;;;;;;4.10;1.87;;;;;-2.00;93468.00;;;;7403355;19;20137;-70
2023/03/12 01:14:35;;;;;;;6.23;2.20;;;;;-1.90;93479.00;;;;7404101;19;20167;-70
2023/03/12 01:17:08;;;;;;;6.00;1.60;;;;;-1.70;93470.00;;;;7402155;19;20139;-70
2023/03/12 01:19:42;;;;;;;3.07;2.00;;;;;-1.70;93467.00;;;;7403673;19;20153;-70
2023/03/12 01:22:10;;;;;;;8.07;1.87;;;;;-1.70;93481.00;;;;7402264;19;20137;-70
2023/03/12 01:24:43;;;;;;;2.53;1.63;;;;;-1.70;93471.00;;;;7404518;19;20132;-71
2023/03/12 01:27:11;;;;;;;3.33;1.73;;;;;-1.70;93478.00;;;;7396386;19;20533;-70
2023/03/12 01:29:44;;;;;;;3.67;2.00;;;;;-1.60;93479.00;;;;7402128;19;20120;-70
2023/03/12 01:32:20;;;;;;;6.00;1.83;;;;;-1.60;93468.00;;;;7403245;19;20608;-70
2023/03/12 01:34:54;;;;;;;2.47;1.73;;;;;-1.50;93468.00;;;;7403042;19;20132;-70
2023/03/12 01:37:28;;;;;;;5.10;1.70;;;;;-1.70;93472.00;;;;7403014;19;20129;-70
2023/03/12 01:39:56;;;;;;;5.40;2.00;;;;;-1.70;93486.00;;;;7402817;19;20493;-70
2023/03/12 01:42:31;;;;;;;6.10;1.80;;;;;-1.60;93474.00;;;;7402819;19;20164;-70
2023/03/12 01:45:06;;;;;;;4.43;1.53;;;;;-1.70;93479.00;;;;7403057;19;20125;-70
2023/03/12 01:47:34;;;;;;;4.63;1.80;;;;;-1.80;93476.00;;;;7402263;19;20149;-70
2023/03/12 01:50:08;;;;;;;8.47;2.00;;;;;-1.70;93473.00;;;;7401636;19;20602;-70
2023/03/12 01:52:43;;;;;;;6.13;2.03;;;;;-1.70;93465.00;;;;7403212;19;20141;-70
2023/03/12 01:55:14;;;;;;;6.23;1.53;;;;;-1.90;93462.00;;;;7402381;19;20136;-70
2023/03/12 01:57:55;;;;;;;2.40;1.40;;;;;-1.90;93469.00;;;;7403242;19;20615;-71
2023/03/12 02:00:29;;;;;;;4.27;1.60;;;;;-1.80;93469.00;;;;7398224;19;20588;-84
2023/03/12 02:03:14;;;;;;;4.83;2.00;;;;;-1.70;93471.00;;;;7398246;19;20152;-84
2023/03/12 02:05:51;;;;;;;3.73;1.67;;;;;-1.80;93466.00;;;;7402853;19;20185;-84
2023/03/12 02:08:25;;;;;;;4.73;2.07;;;;;-1.80;93461.00;;;;7402663;19;20160;-85
2023/03/12 02:10:59;;;;;;;4.27;1.93;;;;;-1.70;93455.00;;;;7401836;19;20137;-84
2023/03/12 02:13:27;;;;;;;2.30;1.60;;;;;-1.90;93466.00;;;;7400449;19;20173;-84
2023/03/12 02:15:54;;;;;;;2.53;1.60;;;;;-1.90;93462.00;;;;7400900;19;20144;-83
2023/03/12 02:18:30;;;;;;;4.37;1.40;;;;;-2.00;93464.00;;;;7403305;19;20133;-84
2023/03/12 02:21:24;;;;;;;2.90;1.60;;;;;-1.90;93464.00;;;;7401784;19;20495;-84
2023/03/12 02:24:05;;;;;;;3.27;1.60;;;;;-1.80;93461.00;;;;7401181;19;20136;-84
2023/03/12 02:26:35;;;;;;;6.87;2.80;;;;;-1.70;93451.00;;;;7401950;19;20136;-84
2023/03/12 02:29:10;;;;;;;3.97;1.30;;;;;-1.70;93459.00;;;;7398178;19;20160;-84
2023/03/12 02:31:51;;;;;;;6.23;1.87;;;;;-1.70;93459.00;;;;7399598;19;20599;-83
2023/03/12 02:34:26;;;;;;;4.20;1.77;;;;;-1.70;93461.00;;;;7401314;19;20463;-84
2023/03/12 02:36:53;;;;;;;8.10;1.60;;;;;-1.80;93468.00;;;;7403015;19;20132;-84
2023/03/12 02:39:27;;;;;;;5.03;1.80;;;;;-1.60;93464.00;;;;7401494;19;20133;-84
2023/03/12 02:41:56;;;;;;;5.53;1.80;;;;;-1.70;93463.00;;;;7401445;19;20153;-84
2023/03/12 02:44:32;;;;;;;7.67;2.40;;;;;-1.60;93461.00;;;;7401364;19;20165;-84
2023/03/12 02:47:01;;;;;;;3.30;1.57;;;;;-1.60;93461.00;;;;7402134;19;20463;-85
2023/03/12 02:49:35;;;;;;;3.70;1.77;;;;;-1.60;93456.00;;;;7402444;19;20618;-84
2023/03/12 02:52:08;;;;;;;6.07;2.00;;;;;-1.50;93452.00;;;;7397987;19;20148;-84
2023/03/12 02:54:42;;;;;;;2.90;1.70;;;;;-1.40;93451.00;;;;7400397;19;20215;-84
2023/03/12 02:57:11;;;;;;;4.33;1.90;;;;;-1.30;93458.00;;;;7400549;19;20133;-84
2023/03/12 02:59:45;;;;;;;12.13;1.90;;;;;-1.40;93440.00;;;;7399189;19;20168;-84
2023/03/12 03:02:25;;;;;;;2.90;1.93;;;;;-1.10;93444.00;;;;7398813;19;20168;-83
2023/03/12 03:05:00;;;;;;;4.73;1.60;;;;;-1.20;93436.00;;;;7399616;19;20149;-83
2023/03/12 03:07:34;;;;;;;3.03;2.00;;;;;-1.00;93442.00;;;;7399689;19;20197;-84
2023/03/12 03:10:09;;;;;;;4.30;1.93;;;;;-0.80;93444.00;;;;7399136;19;20156;-84
2023/03/12 03:12:43;;;;;;;4.47;2.07;;;;;-0.90;93443.00;;;;7399209;19;20152;-84
2023/03/12 03:15:20;;;;;;;4.87;2.00;;;;;-0.90;93441.00;;;;7398096;19;20133;-83
2023/03/12 03:17:54;;;;;;;4.30;2.20;;;;;-0.90;93457.00;;;;7398839;19;20152;-84
2023/03/12 03:20:28;;;;;;;6.20;2.10;;;;;-1.00;93460.00;;;;7400890;19;20188;-84
2023/03/12 03:23:03;;;;;;;4.30;1.90;;;;;-0.90;93457.00;;;;7401021;19;20599;-84
2023/03/12 03:25:32;;;;;;;6.00;2.30;;;;;-0.80;93468.00;;;;7398139;19;20169;-84
2023/03/12 03:28:06;;;;;;;6.60;2.27;;;;;-0.80;93461.00;;;;7399111;19;20487;-84
2023/03/12 03:30:40;;;;;;;5.53;2.37;;;;;-0.60;93471.00;;;;7394672;19;20149;-85
2023/03/12 03:33:14;;;;;;;2.73;2.13;;;;;-0.60;93460.00;;;;7398917;19;20168;-84
2023/03/12 03:35:49;;;;;;;7.33;2.40;;;;;-0.50;93455.00;;;;7398362;19;20159;-83
2023/03/12 03:38:16;;;;;;;6.60;2.33;;;;;-0.50;93455.00;;;;7398393;19;20527;-84
2023/03/12 03:40:50;;;;;;;3.90;2.70;;;;;-0.40;93447.00;;;;7397769;19;20140;-84
2023/03/12 03:43:17;;;;;;;5.03;3.07;;;;;-0.40;93444.00;;;;7400137;19;20576;-83
2023/03/12 03:46:00;;;;;;;4.63;2.77;;;;;-0.20;93438.00;;;;7398887;19;20156;-84
2023/03/12 03:48:28;;;;;;;7.10;3.23;;;;;-0.30;93436.00;;;;7400000;19;20473;-84
2023/03/12 03:51:04;;;;;;;6.90;3.90;;;;;-0.10;93440.00;;;;7397577;19;20169;-84
2023/03/12 03:53:33;;;;;;;7.50;3.83;;;;;-0.10;93435.00;;;;7400440;19;20639;-82
2023/03/12 03:56:15;;;;;;;7.53;4.10;;;;;0.10;93436.00;;;;7399172;19;20157;-83
2023/03/12 03:58:49;;;;;;;6.87;4.00;;;;;0.20;93437.00;;;;7399338;19;20144;-84
2023/03/12 04:01:30;;;;;;;6.97;3.87;;;;;0.20;93434.00;;;;7396815;19;20187;-84
2023/03/12 04:04:10;;;;;;;6.03;3.80;;;;;0.30;93439.00;;;;7399288;19;20722;-84
2023/03/12 04:06:38;;;;;;;7.20;4.23;;;;;0.30;93442.00;;;;7398319;19;20496;-84
2023/03/12 04:09:12;;;;;;;5.07;3.60;;;;;0.20;93449.00;;;;7397869;19;20159;-84
2023/03/12 04:11:40;;;;;;;8.07;4.27;;;;;0.20;93440.00;;;;7396046;19;20607;-83
2023/03/12 04:14:14;;;;;;;6.03;3.90;;;;;0.20;93436.00;;;;7398096;19;20184;-83
2023/03/12 04:16:42;;;;;;;7.93;4.23;;;;;0.00;93438.00;;;;7398306;19;20215;-84
2023/03/12 04:19:16;;;;;;;5.20;4.00;;;;;0.20;93438.00;;;;7398577;19;20188;-84
2023/03/12 04:21:43;;;;;;;11.20;3.87;;;;;0.20;93441.00;;;;7396826;19;20152;-84
2023/03/12 04:24:19;;;;;;;4.90;4.10;;;;;0.10;93447.00;;;;7396981;19;20622;-83
2023/03/12 04:26:46;;;;;;;5.37;3.53;;;;;0.10;93442.00;;;;7397344;19;20156;-83
2023/03/12 04:29:20;;;;;;;6.10;3.40;;;;;0.10;93441.00;;;;7393848;19;20477;-83
2023/03/12 04:31:55;;;;;;;7.57;3.63;;;;;0.20;93433.00;;;;7395245;19;20160;-83
2023/03/12 04:34:29;;;;;;;5.87;3.60;;;;;0.20;93438.00;;;;7397426;19;20148;-83
2023/03/12 04:37:06;;;;;;;6.77;3.77;;;;;0.30;93432.00;;;;7399406;19;20642;-84
2023/03/12 04:39:42;;;;;;;6.50;3.87;;;;;0.20;93443.00;;;;7404349;19;20137;-83
2023/03/12 04:42:16;;;;;;;7.23;4.10;;;;;0.30;93437.00;;;;7404547;19;20573;-84
2023/03/12 04:44:44;;;;;;;5.13;3.80;;;;;0.30;93439.00;;;;7403802;19;20511;-83
2023/03/12 04:47:18;;;;;;;7.07;4.20;;;;;0.30;93438.00;;;;7406133;19;20137;-83
2023/03/12 04:49:55;;;;;;;5.33;3.67;;;;;0.30;93442.00;;;;7404108;19;20606;-83
2023/03/12 04:52:30;;;;;;;5.63;3.60;;;;;0.20;93446.00;;;;7402032;19;20576;-83
2023/03/12 04:54:59;;;;;;;7.27;3.80;;;;;0.20;93447.00;;;;7404049;19;20161;-83
2023/03/12 04:57:26;;;;;;;7.03;4.20;;;;;0.30;93434.00;;;;7404781;19;20204;-83
2023/03/12 05:00:00;;;;;;;8.40;4.30;;;;;0.30;93441.00;;;;7403925;19;20137;-83
2023/03/12 05:02:42;;;;;;;6.77;4.00;;;;;0.30;93436.00;;;;7400541;19;20668;-83
2023/03/12 05:05:16;;;;;;;6.47;3.73;;;;;0.20;93447.00;;;;7403871;19;20160;-83
2023/03/12 05:07:50;;;;;;;6.80;4.13;;;;;0.10;93454.00;;;;7403525;19;20165;-83
2023/03/12 05:10:21;;;;;;;6.47;4.30;;;;;0.10;93454.00;;;;7403378;19;20226;-84
2023/03/12 05:12:55;;;;;;;9.60;4.27;;;;;0.10;93452.00;;;;7405460;19;20160;-84
2023/03/12 05:15:29;;;;;;;7.00;4.50;;;;;0.10;93457.00;;;;7404249;19;20136;-84
2023/03/12 05:18:03;;;;;;;5.93;3.70;;;;;0.20;93451.00;;;;7403284;19;20147;-83
2023/03/12 05:20:31;;;;;;;5.47;4.20;;;;;0.20;93456.00;;;;7403531;19;20140;-84
2023/03/12 05:23:05;;;;;;;7.40;4.23;;;;;0.20;93459.00;;;;7404371;19;20116;-85
2023/03/12 05:25:32;;;;;;;5.80;4.40;;;;;0.30;93447.00;;;;7404095;19;20133;-84
2023/03/12 05:28:07;;;;;;;6.63;4.40;;;;;0.20;93441.00;;;;7401589;19;20822;-85
2023/03/12 05:30:35;;;;;;;6.97;4.03;;;;;0.20;93443.00;;;;7400334;19;20173;-85
2023/03/12 05:33:09;;;;;;;7.77;3.87;;;;;0.10;93444.00;;;;7402938;19;20176;-84
2023/03/12 05:35:43;;;;;;;6.23;4.00;;;;;0.10;93443.00;;;;7403016;19;20168;-84
2023/03/12 05:38:19;;;;;;;9.40;4.10;;;;;0.10;93450.00;;;;7402032;19;20160;-85
2023/03/12 05:40:58;;;;;;;12.97;5.00;;;;;0.10;93446.00;;;;7403082;19;20493;-85
2023/03/12 05:43:33;;;;;;;6.80;3.70;;;;;0.00;93444.00;;;;7404051;19;20665;-84
2023/03/12 05:46:08;;;;;;;8.30;4.90;;;;;0.10;93453.00;;;;7402920;19;20148;-84
2023/03/12 05:48:36;;;;;;;6.53;4.43;;;;;0.00;93450.00;;;;7403470;19;20156;-84
2023/03/12 05:51:12;;;;;;;11.93;4.83;;;;;0.00;93450.00;;;;7401485;19;20180;-84
2023/03/12 05:53:40;;;;;;;10.33;4.33;;;;;0.00;93459.00;;;;7400202;19;20157;-83
2023/03/12 05:56:17;;;;;;;10.60;4.80;;;;;0.10;93450.00;;;;7401272;19;20163;-84
2023/03/12 05:58:51;;;;;;;7.60;4.43;;;;;0.10;93457.00;;;;7402329;19;20137;-85
2023/03/12 06:01:32;;;;;;;6.70;4.53;;;;;0.10;93445.00;;;;7397444;19;20182;-84
2023/03/12 06:04:13;;;;;;;10.73;4.43;;;;;0.10;93447.00;;;;7401699;19;20207;-83
2023/03/12 06:06:48;;;;;;;8.30;5.17;;;;;0.10;93450.00;;;;7401871;19;20477;-83
2023/03/12 06:09:22;;;;;;;9.77;4.37;;;;;0.30;93440.00;;;;7401046;19;20489;-83
2023/03/12 06:11:59;;;;;;;8.20;4.93;;;;;0.30;93436.00;;;;7401176;19;20155;-84
2023/03/12 06:14:33;;;;;;;7.27;4.10;;;;;0.30;93448.00;;;;7391488;19;20164;-83
2023/03/12 06:17:07;;;;;;;8.47;5.00;;;;;0.30;93440.00;;;;7400293;19;20157;-83
2023/03/12 06:19:37;;;;;;;7.10;4.40;;;;;0.30;93436.00;;;;7400637;19;20228;-83
2023/03/12 06:22:10;;;;;;;6.97;4.80;;;;;0.40;93435.00;;;;7400940;19;20458;-83
2023/03/12 06:24:39;;;;;;;8.57;4.87;;;;;0.50;93447.00;;;;7401481;19;20730;-83
2023/03/12 06:27:14;;;;;;;7.23;4.37;;;;;0.40;93436.00;;;;7400940;19;20144;-83
2023/03/12 06:29:42;;;;;;;7.33;5.10;;;;;0.30;93438.00;;;;7399491;19;20608;-83
2023/03/12 06:32:17;;;;;;;8.77;4.90;;;;;0.30;93435.00;;;;7397758;19;20132;-82
2023/03/12 06:34:45;;;;;;;7.47;4.40;;;;;0.30;93434.00;;;;7400056;19;20148;-82
2023/03/12 06:37:27;;;;;;;7.70;4.90;;;;;0.50;93435.00;;;;7399915;19;20144;-82
2023/03/12 06:40:03;;;;;;;10.17;5.13;;;;;0.40;93439.00;;;;7399875;19;20601;-83
2023/03/12 06:42:31;;;;;;;11.23;5.43;;;;;0.30;93439.00;;;;7396918;19;20164;-82
2023/03/12 06:45:16;;;;;;;7.20;4.87;;;;;0.40;93436.00;;;;7394727;19;20156;-82
2023/03/12 06:47:52;;;;;;;7.60;4.70;;;;;0.40;93429.00;;;;7396051;19;20200;-82
2023/03/12 06:50:35;;;;;;;9.63;5.50;;;;;0.60;93438.00;;;;7397240;19;20136;-83
2023/03/12 06:53:04;;;;;;;9.60;5.87;;;;;0.60;93436.00;;;;7395154;19;20152;-82
2023/03/12 06:55:38;;;;;;;8.97;5.33;;;;;0.60;93443.00;;;;7396162;19;20163;-82
2023/03/12 06:58:13;;;;;;;9.33;4.90;;;;;0.80;93440.00;;;;7396751;19;20144;-83
2023/03/12 07:00:46;;;;;;;8.20;4.93;;;;;0.80;93445.00;;;;7394864;19;20176;-83
2023/03/12 07:03:31;;;;;;;7.93;5.10;;;;;0.80;93438.00;;;;7395208;19;20153;-83
2023/03/12 07:06:00;;;;;;;8.50;5.00;;;;;0.70;93447.00;;;;7394772;19;20154;-83
2023/03/12 07:08:34;;;;;;;7.57;4.93;;;;;0.80;93447.00;;;;7400544;19;20462;-83
2023/03/12 07:11:03;;;;;;;6.30;4.70;;;;;0.90;93450.00;;;;7399922;19;20146;-83
2023/03/12 07:13:41;;;;;;;9.73;4.70;;;;;1.10;93455.00;;;;7397983;19;20561;-83
2023/03/12 07:16:17;;;;;;;7.97;4.93;;;;;1.20;93454.00;;;;7392933;19;20185;-83
2023/03/12 07:19:00;;;;;;;9.07;5.27;;;;;1.20;93448.00;;;;7402558;19;20153;-84
2023/03/12 07:21:34;;;;;;;7.43;4.33;;;;;1.70;93447.00;;;;7402025;19;20482;-83
2023/03/12 07:24:10;;;;;;;8.03;4.50;;;;;2.30;93447.00;;;;7400392;19;20614;-84
2023/03/12 07:26:45;;;;;;;7.10;4.03;;;;;3.10;93441.00;;;;7403167;19;20159;-84
2023/03/12 07:29:18;;;;;;;10.17;4.13;;;;;3.50;93435.00;;;;7400948;19;20620;-84
2023/03/12 07:31:46;;;;;;;7.40;3.80;;;;;3.80;93437.00;;;;7397090;19;20148;-84
2023/03/12 07:34:21;;;;;;;4.13;2.97;;;;;4.30;93445.00;;;;7402068;19;20184;-84
2023/03/12 07:36:49;;;;;;;3.13;2.50;;;;;4.60;93451.00;;;;7400628;19;20161;-84
2023/03/12 07:39:18;;;;;;;4.53;2.53;;;;;4.40;93447.00;;;;7401061;19;20136;-84
2023/03/12 07:41:52;;;;;;;5.37;2.10;;;;;4.00;93439.00;;;;7401394;19;20569;-83
2023/03/12 07:44:26;;;;;;;4.20;2.60;;;;;4.10;93446.00;;;;7401229;19;20141;-83
2023/03/12 07:47:03;;;;;;;3.13;1.53;;;;;4.20;93451.00;;;;7402978;19;20137;-84
2023/03/12 07:49:49;;;;;;;1.30;1.17;;;;;4.00;93448.00;;;;7401707;19;20144;-84
2023/03/12 07:52:26;;;;;;;1.63;1.13;;;;;4.10;93449.00;;;;7401628;19;20498;-84
2023/03/12 07:55:05;;;;;;;1.90;1.50;;;;;4.60;93447.00;;;;7401173;19;20152;-84
2023/03/12 07:57:33;;;;;;;4.00;1.10;;;;;4.70;93445.00;;;;7401599;19;20211;-84
2023/03/12 08:00:09;;;;;;;1.50;1.20;;;;;4.80;93457.00;;;;7400529;19;20132;-84
2023/03/12 08:02:44;;;;;;;1.50;1.10;;;;;4.90;93456.00;;;;7400966;19;20644;-85
2023/03/12 08:05:23;;;;;;;0.93;0.90;;;;;4.70;93465.00;;;;7402131;19;20469;-85
2023/03/12 08:07:52;;;;;;;1.80;0.97;;;;;4.80;93454.00;;;;7402288;19;20128;-84
2023/03/12 08:10:34;;;;;;;1.73;0.90;;;;;4.80;93475.00;;;;7401615;19;20142;-84
2023/03/12 08:13:10;;;;;;;1.80;0.80;;;;;4.70;93469.00;;;;7398354;19;20136;-84
2023/03/12 08:15:43;;;;;;;0.63;0.63;;;;;4.90;93484.00;;;;7400208;19;20136;-84
2023/03/12 08:18:19;;;;;;;2.87;1.80;;;;;4.80;93480.00;;;;7399039;19;20151;-84
2023/03/12 08:20:52;;;;;;;1.67;1.23;;;;;5.00;93483.00;;;;7398825;19;20151;-84
2023/03/12 08:23:25;;;;;;;1.20;1.10;;;;;4.90;93488.00;;;;7399845;19;20137;-84
2023/03/12 08:25:54;;;;;;;0.90;0.70;;;;;5.00;93487.00;;;;7398774;19;20132;-84
2023/03/12 08:28:27;;;;;;;1.63;0.60;;;;;4.80;93499.00;;;;7398005;19;20131;-82
2023/03/12 08:31:02;;;;;;;0.40;0.40;;;;;4.80;93501.00;;;;7398729;19;20165;-83
2023/03/12 08:33:29;;;;;;;0.40;0.40;;;;;4.60;93504.00;;;;7397772;19;20152;-83
2023/03/12 08:36:05;;;;;;;1.90;0.80;;;;;4.80;93509.00;;;;7397213;19;20604;-83
2023/03/12 08:38:32;;;;;;;0.73;0.60;;;;;5.00;93503.00;;;;7398533;19;20165;-84
2023/03/12 08:41:07;;;;;;;0.57;0.57;;;;;5.00;93512.00;;;;7398544;19;20476;-83
2023/03/12 08:43:36;;;;;;;1.30;0.50;;;;;5.10;93517.00;;;;7399195;19;20628;-83
2023/03/12 08:46:10;;;;;;;1.10;0.73;;;;;5.10;93510.00;;;;7399622;19;20584;-82
2023/03/12 08:48:48;;;;;;;0.43;0.40;;;;;5.30;93512.00;;;;7399242;19;20596;-83
2023/03/12 08:51:16;;;;;;;0.63;0.40;;;;;5.30;93514.00;;;;7397294;19;20144;-83
2023/03/12 08:53:54;;;;;;;0.63;0.57;;;;;5.40;93514.00;;;;7396454;19;20427;-83
2023/03/12 08:56:22;;;;;;;0.93;0.50;;;;;5.60;93513.00;;;;7397308;19;20595;-83
2023/03/12 08:58:58;;;;;;;0.50;0.37;;;;;5.70;93523.00;;;;7396877;19;20145;-83
2023/03/12 09:01:32;;;;;;;0.50;0.40;;;;;5.60;93507.00;;;;7396779;19;20141;-82
2023/03/12 09:04:20;;;;;;;0.53;0.40;;;;;5.80;93518.00;;;;7399127;19;20165;-82
2023/03/12 09:06:57;;;;;;;0.27;0.27;;;;;5.70;93522.00;;;;7394104;19;20157;-83
2023/03/12 09:09:30;;;;;;;0.47;0.47;;;;;5.70;93516.00;;;;7397078;19;20484;-83
2023/03/12 09:11:58;;;;;;;0.20;0.20;;;;;5.70;93532.00;;;;7397411;19;20161;-83
2023/03/12 09:14:32;;;;;;;0.50;0.20;;;;;5.60;93527.00;;;;7396984;19;20152;-83
2023/03/12 09:17:20;;;;;;;0.57;0.57;;;;;5.60;93538.00;;;;7397445;19;20604;-83
2023/03/12 09:19:54;;;;;;;0.43;0.43;;;;;5.40;93552.00;;;;7398247;19;20651;-83
2023/03/12 09:22:22;;;;;;;1.00;0.30;;;;;5.60;93550.00;;;;7398125;19;20200;-83
2023/03/12 09:24:56;;;;;;;0.57;0.37;;;;;5.40;93541.00;;;;7405523;19;20510;-83
2023/03/12 09:27:40;;;;;;;0.30;0.30;;;;;5.50;93553.00;;;;7406418;19;20140;-83
2023/03/12 09:30:17;;;;;;;0.20;0.20;;;;;5.60;93557.00;;;;7403294;19;20623;-83
2023/03/12 09:32:52;;;;;;;0.40;0.40;;;;;5.70;93552.00;;;;7405584;19;20736;-83
2023/03/12 09:35:20;;;;;;;0.10;0.10;;;;;5.40;93555.00;;;;7406760;19;20340;-83
2023/03/12 09:37:57;;;;;;;0.30;0.20;;;;;5.60;93567.00;;;;7406100;19;20185;-83
2023/03/12 09:40:35;;;;;;;0.30;0.30;;;;;5.70;93559.00;;;;7405264;19;20136;-84
2023/03/12 09:43:31;;;;;;;1.80;0.60;;;;;6.00;93567.00;;;;7404964;19;20137;-83
2023/03/12 09:46:13;;;;;;;0.43;0.40;;;;;5.50;93566.00;;;;7405214;19;20184;-83
2023/03/12 09:48:51;;;;;;;0.47;0.40;;;;;5.90;93561.00;;;;7408255;19;20144;-83
2023/03/12 09:51:43;;;;;;;0.40;0.40;;;;;5.90;93570.00;;;;7406622;19;20137;-83
2023/03/12 09:54:37;;;;;;;0.43;0.20;;;;;6.00;93568.00;;;;7400538;19;20161;-83
2023/03/12 09:57:21;;;;;;;0.40;0.40;;;;;6.10;93573.00;;;;7407219;19;20564;-84
2023/03/12 10:00:01;;;;;;;0.67;0.30;;;;;5.80;93572.00;;;;7404475;19;20125;-83
2023/03/12 10:03:04;;;;;;;0.97;0.57;;;;;5.90;93584.00;;;;7402787;19;20176;-83
2023/03/12 10:06:08;;;;;;;2.13;0.83;;;;;5.80;93592.00;;;;7406221;19;20604;-83
2023/03/12 10:08:58;;;;;;;2.43;1.00;;;;;6.00;93587.00;;;;7404327;19;20141;-83
2023/03/12 10:11:50;;;;;;;2.93;1.37;;;;;6.10;93589.00;;;;7407099;19;20136;-84
2023/03/12 10:15:01;;;;;;;4.27;1.20;;;;;5.80;93598.00;;;;7402209;19;20145;-83
2023/03/12 10:17:52;;;;;;;1.93;1.43;;;;;5.90;93598.00;;;;7404076;19;20556;-82
2023/03/12 10:20:34;;;;;;;3.27;1.60;;;;;5.70;93616.00;;;;7403006;19;20141;-83
2023/03/12 10:23:40;;;;;;;3.30;1.80;;;;;5.80;93597.00;;;;7403780;19;20165;-83
2023/03/12 10:26:42;;;;;;;2.53;1.87;;;;;5.70;93611.00;;;;7403054;19;20141;-83
2023/03/12 10:29:25;;;;;;;3.90;2.17;;;;;5.90;93619.00;;;;7400288;19;20136;-83
2023/03/12 10:32:15;;;;;;;3.33;1.70;;;;;6.20;93621.00;;;;7403115;19;20139;-83
2023/03/12 10:34:54;;;;;;;4.83;1.87;;;;;6.30;93623.00;;;;7402222;19;20464;-84
2023/03/12 10:37:24;;;;;;;6.47;2.00;;;;;6.60;93623.00;;;;7403190;19;20717;-83
2023/03/12 10:40:00;;;;;;;4.17;1.80;;;;;6.60;93626.00;;;;7403212;19;20608;-83
2023/03/12 10:42:35;;;;;;;4.00;1.77;;;;;6.60;93625.00;;;;7402807;19;20641;-84
2023/03/12 10:45:08;;;;;;;5.47;1.70;;;;;6.50;93620.00;;;;7403888;19;20152;-83
2023/03/12 10:47:43;;;;;;;4.27;1.50;;;;;6.50;93627.00;;;;7402147;19;20153;-83
2023/03/12 10:50:24;;;;;;;2.67;1.50;;;;;6.40;93638.00;;;;7404286;19;20608;-83
2023/03/12 10:53:11;;;;;;;4.30;1.50;;;;;6.30;93639.00;;;;7403278;19;20143;-83
2023/03/12 10:56:08;;;;;;;5.93;1.50;;;;;6.40;93639.00;;;;7403989;19;20129;-84
2023/03/12 10:58:41;;;;;;;3.90;1.30;;;;;6.20;93642.00;;;;7403499;19;20166;-82
2023/03/12 11:01:30;;;;;;;4.10;1.53;;;;;6.30;93648.00;;;;7403715;19;20153;-83
2023/03/12 11:04:29;;;;;;;5.27;1.43;;;;;6.20;93647.00;;;;7401648;19;20197;-84
2023/03/12 11:07:17;;;;;;;5.43;1.57;;;;;6.20;93647.00;;;;7404770;19;20134;-84
2023/03/12 11:10:01;;;;;;;3.57;1.30;;;;;6.20;93657.00;;;;7405312;19;20202;-83
2023/03/12 11:12:38;;;;;;;3.50;1.40;;;;;6.20;93658.00;;;;7404537;19;20141;-84
2023/03/12 11:15:40;;;;;;;2.27;1.30;;;;;6.30;93654.00;;;;7404963;19;20600;-83
2023/03/12 11:18:35;;;;;;;3.60;1.40;;;;;6.40;93652.00;;;;7405633;19;20131;-83
2023/03/12 11:21:15;;;;;;;6.40;1.77;;;;;6.40;93654.00;;;;7405314;19;20157;-83
2023/03/12 11:23:56;;;;;;;4.63;1.77;;;;;6.60;93648.00;;;;7403259;19;20144;-83
2023/03/12 11:26:51;;;;;;;2.87;1.70;;;;;6.60;93653.00;;;;7403238;19;20144;-83
2023/03/12 11:29:47;;;;;;;6.63;2.10;;;;;6.60;93653.00;;;;7401995;19;20655;-84
2023/03/12 11:32:28;;;;;;;4.97;1.90;;;;;6.60;93645.00;;;;7401567;19;20141;-83
2023/03/12 11:35:09;;;;;;;5.20;1.70;;;;;7.00;93665.00;;;;7402269;19;20121;-84
2023/03/12 11:38:13;;;;;;;6.57;2.20;;;;;6.80;93644.00;;;;7402211;19;20137;-83
2023/03/12 11:40:56;;;;;;;7.70;2.50;;;;;7.30;93638.00;;;;7403742;19;20144;-84
2023/03/12 11:44:00;;;;;;;9.13;2.67;;;;;8.00;93642.00;;;;7404146;19;20599;-83
2023/03/12 11:46:53;;;;;;;7.67;2.23;;;;;7.60;93664.00;;;;7402623;19;20149;-84
2023/03/12 11:49:52;;;;;;;7.73;2.70;;;;;7.40;93657.00;;;;7400286;19;20137;-83
2023/03/12 11:52:56;;;;;;;8.30;2.83;;;;;7.70;93649.00;;;;7402270;19;20608;-82
2023/03/12 11:56:05;;;;;;;5.33;2.00;;;;;7.60;93649.00;;;;7406905;19;20136;-83
2023/03/12 11:59:12;;;;;;;7.23;1.97;;;;;7.60;93642.00;;;;7404340;19;20137;-84
2023/03/12 12:02:11;;;;;;;8.30;2.47;;;;;7.80;93646.00;;;;7403606;19;20136;-83
2023/03/12 12:05:20;;;;;;;5.03;1.80;;;;;7.50;93638.00;;;;7403824;19;20561;-83
2023/03/12 12:08:08;;;;;;;7.80;2.10;;;;;7.70;93638.00;;;;7404912;19;20141;-83
2023/03/12 12:10:59;;;;;;;5.43;1.90;;;;;8.00;93644.00;;;;7403403;19;20136;-83
2023/03/12 12:14:06;;;;;;;6.53;2.03;;;;;7.50;93643.00;;;;7402678;19;20140;-83
2023/03/12 12:17:09;;;;;;;5.80;2.10;;;;;7.60;93642.00;;;;7402401;19;20141;-83
2023/03/12 12:20:08;;;;;;;4.70;1.83;;;;;7.60;93622.00;;;;7402220;19;20545;-81
2023/03/12 12:23:11;;;;;;;5.93;2.20;;;;;8.40;93628.00;;;;7403112;19;20604;-84
2023/03/12 12:26:04;;;;;;;3.37;1.70;;;;;8.90;93622.00;;;;7402167;19;20137;-83
2023/03/12 12:28:44;;;;;;;6.13;1.93;;;;;8.00;93620.00;;;;7404153;19;20140;-84
2023/03/12 12:31:40;;;;;;;4.57;1.77;;;;;7.70;93620.00;;;;7403863;19;20131;-84
2023/03/12 12:34:29;;;;;;;4.40;1.70;;;;;7.60;93639.00;;;;7404744;19;20592;-83
2023/03/12 12:37:32;;;;;;;5.27;1.50;;;;;7.30;93624.00;;;;7401738;19;20137;-82
2023/03/12 12:40:18;;;;;;;4.20;1.83;;;;;7.50;93629.00;;;;7400572;19;20125;-82
2023/03/12 12:43:27;;;;;;;1.90;1.27;;;;;7.80;93637.00;;;;7399295;19;20141;-82
2023/03/12 12:46:14;;;;;;;5.53;1.60;;;;;8.50;93628.00;;;;7398189;19;20132;-82
2023/03/12 12:49:22;;;;;;;13.63;3.67;;;;;8.30;93633.00;;;;7397357;19;20157;-82
2023/03/12 12:51:58;;;;;;;10.00;2.10;;;;;8.20;93631.00;;;;7396589;19;20168;-82
2023/03/12 12:54:50;;;;;;;6.43;2.03;;;;;8.30;93631.00;;;;7397054;19;20150;-83
2023/03/12 12:57:40;;;;;;;9.00;3.10;;;;;7.40;93631.00;;;;7398318;19;20137;-83
2023/03/12 13:00:36;;;;;;;9.63;2.40;;;;;7.60;93627.00;;;;7404922;19;20200;-84
2023/03/12 13:03:17;;;;;;;5.77;2.17;;;;;8.10;93629.00;;;;7406227;19;20205;-82
2023/03/12 13:05:53;;;;;;;8.03;2.20;;;;;8.00;93634.00;;;;7399382;19;20161;-82
2023/03/12 13:08:41;;;;;;;7.47;2.23;;;;;8.00;93652.00;;;;7400988;19;20141;-83
2023/03/12 13:11:15;;;;;;;9.07;2.70;;;;;7.40;93652.00;;;;7402885;19;20132;-83
2023/03/12 13:14:14;;;;;;;6.67;2.30;;;;;7.20;93648.00;;;;7401383;19;20133;-83
2023/03/12 13:17:04;;;;;;;7.30;3.97;;;;;7.30;93647.00;;;;7398839;19;20144;-82